Jemez Springs, Valles Caldera, New Mexico Weather observations

Data are for 10 minute period ending at time listed.
 Day   Time   Solar   Ave.   Ave.  Ave.  Vector  Max.   Baro.   Total    
  of    of     Rad.   Air    Rel.  Wind   Wind   Wind  Press.  Precip.   
Year   Day            Temp.  Hum.  Speed  Dir.   Gust                    
2016   (MST)  Kw/m2    F      %     mph   deg.    mph    mb.     in.     
-------------------------------------------------------------------------
 344    2:30   0.00   21.8    75    4.1    10     7.2   814.9    0.00 
 344    2:40   0.00   21.8    75    3.5     6     6.0   814.9    0.00 
 344    2:50   0.00   21.9    74    4.3    18     7.2   815.0    0.00 
 344    3:00   0.00   21.8    75    4.9    14     7.8   814.9    0.00 
 344    3:10   0.00   21.8    74    4.0     9     8.4   814.8    0.00 
 344    3:20   0.00   21.6    75    3.3     6     7.2   814.8    0.00 
 344    3:30   0.00   21.7    74    4.3   358     7.2   814.8    0.00 
 344    3:40   0.00   21.6    75    4.1     7     6.6   814.8    0.00 
 344    3:50   0.00   21.6    75    4.5     4     7.8   814.8    0.00 
 344    4:00   0.00   21.1    76    5.4    24     7.8   814.7    0.00 
 344    4:10   0.00   21.0    77    4.6    25     6.6   814.5    0.00 
 344    4:20   0.00   21.1    76    5.3    20     9.0   814.4    0.00 
 344    4:30   0.00   21.0    76    5.4    18     7.8   814.4    0.00 
 344    4:40   0.00   20.8    77    5.7    18     7.8   814.3    0.00 
 344    4:50   0.00   20.8    77    6.0    17     8.7   814.3    0.00 
 344    5:00   0.00   20.7    77    4.5    19     7.2   814.3    0.00 
 344    5:10   0.00   20.8    77    5.6    14     8.4   814.2    0.00 
 344    5:20   0.00   20.8    77    5.8     7    10.2   814.0    0.00 
 344    5:30   0.00   20.8    77    5.1    19    10.8   814.1    0.00 
 344    5:40   0.00   21.0    77    5.5     8     9.6   814.3    0.00 
 344    5:50   0.00   20.9    77    5.1     2     9.0   814.4    0.00 
 344    6:00   0.00   20.6    78    4.2    16     8.4   814.6    0.00 
 344    6:10   0.00   20.5    79    4.9    18     7.8   814.7    0.00 
 344    6:20   0.00   20.7    78    4.9    18     9.0   814.8    0.00 
 344    6:30   0.00   20.8    78    5.4     8     9.0   814.7    0.00 
 344    6:40   0.00   20.9    79    3.6     6     6.0   814.8    0.00 
 344    6:50   0.00   20.2    80    1.9    24     4.8   814.8    0.00 
 344    7:00   0.00   19.5    82    1.8   354     4.2   814.9    0.00 
 344    7:10   0.00   19.4    84    2.8    22     5.4   815.0    0.00 
 344    7:20   0.01   19.5    84    1.0    52     2.4   815.0    0.00 
 344    7:30   0.01   19.4    84    1.5    32     3.6   815.0    0.00 
 344    7:40   0.01   19.5    84    1.1    26     3.6   814.9    0.00 
 344    7:50   0.02   19.2    85    0.6    20     4.2   814.9    0.00 
 344    8:00   0.02   19.2    85    1.1    23     3.6   815.0    0.00 
 344    8:10   0.02   19.3    86    1.2    18     3.6   815.1    0.00 
 344    8:20   0.02   19.6    85    1.3    18     3.6   815.1    0.00 
 344    8:30   0.03   19.5    85    0.1    27     3.0   815.2    0.00 
 344    8:40   0.18   21.6    85    0.5    37     3.0   815.2    0.00 
 344    8:50   0.25   26.2    75    2.0    43     3.6   815.2    0.00 
 344    9:00   0.28   27.9    69    2.6    53     4.8   815.2    0.00 
 344    9:10   0.30   29.6    65    2.0    68     3.6   815.3    0.00 
 344    9:20   0.33   31.9    60    0.9   102     3.0   815.4    0.00 
 344    9:30   0.35   32.8    57    2.6   139     4.2   815.6    0.00 
 344    9:40   0.38   32.5    58    5.0   159     7.8   815.6    0.00 
 344    9:50   0.40   33.3    58    5.3   164     7.8   815.6    0.00 
 344   10:00   0.42   33.9    56    5.6   164     9.3   815.7    0.00 
 344   10:10   0.43   34.6    56    5.4   164     9.0   815.6    0.00 
 344   10:20   0.45   35.2    56    5.9   171     9.6   815.5    0.00 
 344   10:30   0.47   35.5    55    6.5   172    10.2   815.5    0.00 
 344   10:40   0.48   35.5    58    6.5   174    11.9   815.5    0.00 
 344   10:50   0.49   36.6    56    5.5   185    10.8   815.4    0.00 
 344   11:00   0.50   37.3    54    6.1   181    10.2   815.2    0.00 
 344   11:10   0.52   37.8    54    4.9   182     7.2   815.2    0.00 
 344   11:20   0.53   39.1    52    4.8   161     6.6   815.1    0.00 
 344   11:30   0.54   40.1    50    4.0   149     6.6   814.8    0.00 
 344   11:40   0.50   40.2    50    4.5   157     7.8   814.6    0.00 
 344   11:50   0.52   40.8    49    5.5   177     8.4   814.5    0.00 
 344   12:00   0.54   41.1    49    6.0   176    10.8   814.4    0.00 
 344   12:10   0.54   41.3    48    6.5   171     9.6   814.3    0.00 
 344   12:20   0.54   41.7    48    5.8   168     9.6   814.2    0.00 
 344   12:30   0.51   42.5    47    5.6   170     9.0   814.1    0.00 
 344   12:40   0.51   43.3    45    5.2   168     9.0   814.0    0.00 
 344   12:50   0.49   43.0    46    5.4   178     8.4   813.7    0.00 
 344   13:00   0.41   43.1    46    4.7   176     7.2   813.4    0.00 
 344   13:10   0.48   43.9    44    4.9   174     7.8   813.1    0.00 
 344   13:20   0.47   44.7    43    5.5   178     7.8   812.9    0.00 
 344   13:30   0.32   43.6    44    8.5   181    15.5   812.8    0.00 
 344   13:40   0.44   43.3    46    9.5   182    13.1   813.0    0.00 
 344   13:50   0.32   44.8    43    6.6   183    11.3   812.8    0.00 
 344   14:00   0.35   44.5    44    7.5   201    13.1   813.0    0.00 
 344   14:10   0.39   44.8    43    8.8   180    14.3   813.0    0.00 
 344   14:20   0.42   45.7    42    6.9   196    12.5   813.0    0.00 
 344   14:30   0.37   46.4    41    6.0   193    10.8   813.1    0.00 
 344   14:40   0.35   47.1    40    4.6   226     7.8   813.1    0.00 
 344   14:50   0.24   47.0    40    4.1   224     7.2   813.1    0.00 
 344   15:00   0.29   47.2    40    3.4   182     7.2   813.0    0.00 
 344   15:10   0.26   47.4    40    2.6   198     5.4   813.0    0.00 
 344   15:20   0.23   47.7    40    2.6   217     5.4   813.0    0.00 
 344   15:30   0.17   47.6    40    1.9   194     3.6   813.0    0.00 
 344   15:40   0.07   46.7    42    2.3   224     4.8   813.0    0.00 
 344   15:50   0.05   45.3    44    2.4   260     5.4   813.0    0.00 
 344   16:00   0.04   43.8    47    2.7   267     4.2   813.0    0.00 
 344   16:10   0.04   42.3    50    2.5   304     4.2   813.0    0.00 
 344   16:20   0.03   41.6    51    1.3    17     3.0   813.0    0.00 
 344   16:30   0.03   40.3    54    0.8    31     3.0   813.0    0.00 
 344   16:40   0.01   38.7    57    2.0    24     3.6   813.0    0.00 
 344   16:50   0.01   37.2    59    1.7    20     4.2   813.1    0.00 
 344   17:00   0.00   35.4    64    2.2    30     4.2   813.2    0.00 
 344   17:10   0.00   34.3    66    0.7    36     3.9   813.2    0.00 
 344   17:20   0.00   33.2    68    0.9    39     3.0   813.3    0.00 
 344   17:30   0.00   32.9    70    1.6    39     4.2   813.4    0.00 
 344   17:40   0.00   32.4    71    1.7    20     3.6   813.5    0.00 
 344   17:50   0.00   33.2    70    3.8    22     6.0   813.5    0.00 
 344   18:00   0.00   33.6    68    4.5    13     7.8   813.6    0.00 
 344   18:10   0.00   33.6    68    6.0    17     9.6   813.5    0.00 
 344   18:20   0.00   33.7    68    6.1    11    10.2   813.7    0.00 
 344   18:30   0.00   33.0    69    4.2    25     6.6   813.7    0.00 
 344   18:40   0.00   32.9    70    4.6    13     7.8   813.7    0.00 
 344   18:50   0.00   32.8    70    3.9   355     9.6   813.7    0.00 
 344   19:00   0.00   32.9    69    3.3   344     6.0   813.7    0.00 
 344   19:10   0.00   32.6    70    3.2   359     6.0   813.7    0.00 
 344   19:20   0.00   32.7    70    4.6    14     9.0   813.7    0.00 
 344   19:30   0.00   33.4    68    4.9     6     9.0   813.6    0.00 
 344   19:40   0.00   33.8    66    4.8     5     8.4   813.6    0.00 
 344   19:50   0.00   34.3    64    6.3    17    10.2   813.6    0.00 
 344   20:00   0.00   34.6    63    6.3     9    10.8   813.5    0.00 
 344   20:10   0.00   34.9    62    5.4    10     8.4   813.6    0.00 
 344   20:20   0.00   34.8    62    3.8   354     6.6   813.7    0.00 
 344   20:30   0.00   34.5    62    3.6   345     6.6   813.6    0.00 
 344   20:40   0.00   34.2    63    4.0   319     6.0   813.7    0.00 
 344   20:50   0.00   33.2    65    2.1   279     6.0   813.7    0.00 
 344   21:00   0.00   30.5    73    1.4   198     4.2   813.7    0.00 
 344   21:10   0.00   28.9    77    2.6   193     4.8   813.8    0.00 
 344   21:20   0.00   28.3    78    0.2    56     1.8   813.8    0.00 
 344   21:30   0.00   27.7    79    0.4    16     3.6   813.7    0.00 
 344   21:40   0.00   27.2    81    3.0     8     4.8   813.7    0.00 
 344   21:50   0.00   27.6    80    3.5    26     6.0   813.7    0.00 
 344   22:00   0.00   27.1    81    2.8    23     4.8   813.8    0.00 
 344   22:10   0.00   26.8    82    3.3    28     5.4   813.7    0.00 
 344   22:20   0.00   27.2    82    3.4    21     4.8   813.8    0.00 
 344   22:30   0.00   26.9    82    2.1    29     5.4   813.8    0.00 
 344   22:40   0.00   26.4    83    1.8    28     3.6   813.8    0.00 
 344   22:50   0.00   26.0    84    1.0    33     3.0   813.7    0.00 
 344   23:00   0.00   25.8    85    0.9    17     3.0   813.8    0.00 
 344   23:10   0.00   26.4    86    3.8    11     6.6   813.7    0.00 
 344   23:20   0.00   27.8    82    5.3    15     9.0   813.8    0.00 
 344   23:30   0.00   28.0    81    5.3    19     8.4   813.7    0.00 
 344   23:40   0.00   28.0    80    4.7     7     8.4   813.7    0.00 
 344   23:50   0.00   28.1    80    4.0     6     7.2   813.6    0.00 
 345    0:00   0.00   28.0    80    5.4    10     9.6   813.5    0.00 
 345    0:10   0.00   28.3    80    4.6    12     9.0   813.5    0.00 
 345    0:20   0.00   27.9    81    5.2    17     8.4   813.4    0.00 
 345    0:30   0.00   28.0    81    4.2    17     6.0   813.3    0.00 
 345    0:40   0.00   28.0    81    5.7    15     8.4   813.2    0.00 
 345    0:50   0.00   28.1    80    7.2    17    10.8   813.2    0.00 
 345    1:00   0.00   28.1    81    5.2    11     7.8   813.2    0.00 
 345    1:10   0.00   28.3    80    5.7    10     9.0   813.2    0.00 
 345    1:20   0.00   28.7    79    6.2    11    10.2   813.2    0.00 
 345    1:30   0.00   29.0    79    4.2    13     7.2   813.2    0.00 
 345    1:40   0.00   29.2    78    4.4    18     6.6   813.1    0.00 
 345    1:50   0.00   29.4    78    5.0    12     9.6   813.2    0.00 
 345    2:00   0.00   29.4    77    4.6     4     7.2   813.0    0.00 
 345    2:10   0.00   29.0    78    3.9   357     7.2   812.9    0.00 
 345    2:20   0.00   29.1    78    4.1     7     6.6   812.9    0.00 

Return to Jemez Springs, Valles Caldera graphs page.


Western Regional Climate Center,wrcc@dri.edu